createdAt,value
2022-12-09T00:00:32.478Z,992.79
2022-12-09T00:01:32.431Z,992.77
2022-12-09T00:02:32.414Z,992.76
2022-12-09T00:03:32.438Z,992.74
2022-12-09T00:04:32.359Z,992.79
2022-12-09T00:05:32.312Z,992.78
2022-12-09T00:06:32.306Z,992.75
2022-12-09T00:07:32.195Z,992.76
2022-12-09T00:08:32.453Z,992.78
2022-12-09T00:09:32.169Z,992.78
2022-12-09T00:10:32.181Z,992.81
2022-12-09T00:11:32.146Z,992.81
2022-12-09T00:12:32.132Z,992.81
2022-12-09T00:13:32.404Z,992.82
2022-12-09T00:14:32.270Z,992.83
2022-12-09T00:15:32.132Z,992.80
2022-12-09T00:16:32.107Z,992.77
2022-12-09T00:17:32.335Z,992.79
2022-12-09T00:18:32.068Z,992.76
2022-12-09T00:19:32.049Z,992.79
2022-12-09T00:20:32.036Z,992.78
2022-12-09T00:21:32.276Z,992.71
2022-12-09T00:22:32.004Z,992.71
2022-12-09T00:23:32.022Z,992.78
2022-12-09T00:24:31.974Z,992.74
2022-12-09T00:25:32.215Z,992.75
2022-12-09T00:26:32.104Z,992.73
2022-12-09T00:27:31.939Z,992.78
2022-12-09T00:28:31.937Z,992.75
2022-12-09T00:29:32.090Z,992.72
2022-12-09T00:30:31.900Z,992.74
2022-12-09T00:31:32.285Z,992.73
2022-12-09T00:32:32.208Z,992.66
2022-12-09T00:33:31.890Z,992.66
2022-12-09T00:34:32.040Z,992.67
2022-12-09T00:35:31.887Z,992.66
2022-12-09T00:36:31.839Z,992.66
2022-12-09T00:37:31.945Z,992.60
2022-12-09T00:38:31.839Z,992.61
2022-12-09T00:39:31.972Z,992.68
2022-12-09T00:40:31.997Z,992.66
2022-12-09T00:41:32.032Z,992.61
2022-12-09T00:42:31.851Z,992.66
2022-12-09T00:43:31.782Z,992.66
2022-12-09T00:44:31.932Z,992.67
2022-12-09T00:45:31.701Z,992.62
2022-12-09T00:46:31.774Z,992.62
2022-12-09T00:47:32.048Z,992.63
2022-12-09T00:48:31.693Z,992.57
2022-12-09T00:49:31.709Z,992.59
2022-12-09T00:50:31.874Z,992.56
2022-12-09T00:51:31.643Z,992.61
2022-12-09T00:52:31.662Z,992.56
2022-12-09T00:53:31.605Z,992.60
2022-12-09T00:54:31.981Z,992.56
2022-12-09T00:55:31.825Z,992.57
2022-12-09T00:56:31.559Z,992.64
2022-12-09T00:57:31.671Z,992.59
2022-12-09T00:58:31.699Z,992.59
2022-12-09T00:59:31.536Z,992.59
2022-12-09T01:00:31.679Z,992.52
2022-12-09T01:01:31.705Z,992.57
2022-12-09T01:02:31.725Z,992.57
2022-12-09T01:03:32.027Z,992.55
2022-12-09T01:04:31.844Z,992.52
2022-12-09T01:05:31.707Z,992.58
2022-12-09T01:06:31.596Z,992.57
2022-12-09T01:07:31.657Z,992.54
2022-12-09T01:08:31.521Z,992.59
2022-12-09T01:09:31.569Z,992.56
2022-12-09T01:10:31.548Z,992.58
2022-12-09T01:11:31.522Z,992.56
2022-12-09T01:12:31.452Z,992.54
2022-12-09T01:13:31.613Z,992.61
2022-12-09T01:14:31.555Z,992.58
2022-12-09T01:15:31.355Z,992.55
2022-12-09T01:16:31.625Z,992.56
2022-12-09T01:17:31.655Z,992.56
2022-12-09T01:18:31.494Z,992.57
2022-12-09T01:19:31.349Z,992.55
2022-12-09T01:20:31.531Z,992.57
2022-12-09T01:21:31.443Z,992.61
2022-12-09T01:22:31.490Z,992.63
2022-12-09T01:23:31.450Z,992.61
2022-12-09T01:24:31.254Z,992.63
2022-12-09T01:25:31.195Z,992.66
2022-12-09T01:26:31.185Z,992.62
2022-12-09T01:27:31.201Z,992.65
2022-12-09T01:28:31.190Z,992.69
2022-12-09T01:29:31.150Z,992.65
2022-12-09T01:30:31.436Z,992.64
2022-12-09T01:31:31.436Z,992.62
2022-12-09T01:32:31.241Z,992.66
2022-12-09T01:33:31.086Z,992.65
2022-12-09T01:34:31.416Z,992.65
2022-12-09T01:35:31.063Z,992.64
2022-12-09T01:36:31.147Z,992.64
2022-12-09T01:37:31.044Z,992.60
2022-12-09T01:38:31.025Z,992.65
2022-12-09T01:39:31.076Z,992.57
2022-12-09T01:40:31.054Z,992.60
2022-12-09T01:41:30.983Z,992.58
2022-12-09T01:42:30.977Z,992.59
2022-12-09T01:43:31.123Z,992.55
2022-12-09T01:44:30.968Z,992.57
2022-12-09T01:45:31.280Z,992.58
2022-12-09T01:46:31.198Z,992.52
2022-12-09T01:47:31.311Z,992.55
2022-12-09T01:48:31.060Z,992.55
2022-12-09T01:49:31.202Z,992.56
2022-12-09T01:50:31.210Z,992.53
2022-12-09T01:51:31.074Z,992.49
2022-12-09T01:52:31.152Z,992.51
2022-12-09T01:53:31.108Z,992.52
2022-12-09T01:54:30.841Z,992.52
2022-12-09T01:55:30.899Z,992.52
2022-12-09T01:56:30.943Z,992.51
2022-12-09T01:57:30.822Z,992.47
2022-12-09T01:58:30.910Z,992.42
2022-12-09T01:59:30.912Z,992.46
2022-12-09T02:00:30.969Z,992.46
2022-12-09T02:01:30.859Z,992.45
2022-12-09T02:02:30.960Z,992.39
2022-12-09T02:03:30.920Z,992.42
2022-12-09T02:04:30.794Z,992.36
2022-12-09T02:05:31.010Z,992.37
2022-12-09T02:06:30.784Z,992.36
2022-12-09T02:07:30.807Z,992.38
2022-12-09T02:08:30.723Z,992.37
2022-12-09T02:09:30.788Z,992.39
2022-12-09T02:10:30.629Z,992.38
2022-12-09T02:11:30.670Z,992.34
2022-12-09T02:12:30.591Z,992.38
2022-12-09T02:13:30.576Z,992.37
2022-12-09T02:14:30.741Z,992.36
2022-12-09T02:15:30.833Z,992.34
2022-12-09T02:16:30.670Z,992.30
2022-12-09T02:17:30.751Z,992.35
2022-12-09T02:18:30.875Z,992.33
2022-12-09T02:19:30.721Z,992.32
2022-12-09T02:20:30.565Z,992.29
2022-12-09T02:21:30.480Z,992.28
2022-12-09T02:22:30.501Z,992.31
2022-12-09T02:23:30.797Z,992.33
2022-12-09T02:24:30.760Z,992.37
2022-12-09T02:25:30.440Z,992.28
2022-12-09T02:26:30.416Z,992.30
2022-12-09T02:27:30.597Z,992.30
2022-12-09T02:28:30.786Z,992.33
2022-12-09T02:29:30.607Z,992.27
2022-12-09T02:30:30.386Z,992.26
2022-12-09T02:31:30.469Z,992.22
2022-12-09T02:32:30.660Z,992.25
2022-12-09T02:33:30.443Z,992.19
2022-12-09T02:34:30.662Z,992.15
2022-12-09T02:35:30.420Z,992.16
2022-12-09T02:36:30.472Z,992.21
2022-12-09T02:37:30.302Z,992.19
2022-12-09T02:38:30.269Z,992.19
2022-12-09T02:39:30.543Z,992.18
2022-12-09T02:40:30.269Z,992.19
2022-12-09T02:41:30.536Z,992.24
2022-12-09T02:42:30.233Z,992.23
2022-12-09T02:43:30.502Z,992.20
2022-12-09T02:44:30.195Z,992.22
2022-12-09T02:45:30.496Z,992.19
2022-12-09T02:46:30.320Z,992.20
2022-12-09T02:47:30.602Z,992.20
2022-12-09T02:48:30.648Z,992.11
2022-12-09T02:49:30.248Z,992.06
2022-12-09T02:50:30.530Z,992.07
2022-12-09T02:51:30.105Z,992.09
2022-12-09T02:52:30.341Z,992.07
2022-12-09T02:53:30.186Z,992.08
2022-12-09T02:54:30.195Z,992.03
2022-12-09T02:55:30.408Z,992.07
2022-12-09T02:56:30.043Z,992.01
2022-12-09T02:57:30.215Z,991.98
2022-12-09T02:58:30.074Z,991.95
2022-12-09T02:59:30.077Z,991.97
2022-12-09T03:00:30.112Z,991.93
2022-12-09T03:01:30.297Z,991.92
2022-12-09T03:02:30.271Z,991.90
2022-12-09T03:03:30.335Z,991.93
2022-12-09T03:04:30.067Z,991.90
2022-12-09T03:05:29.967Z,991.93
2022-12-09T03:06:29.935Z,991.93
2022-12-09T03:07:30.235Z,991.99
2022-12-09T03:08:29.994Z,991.91
2022-12-09T03:09:30.171Z,991.93
2022-12-09T03:10:29.892Z,991.91
2022-12-09T03:11:29.851Z,991.92
2022-12-09T03:12:29.921Z,991.88
2022-12-09T03:13:29.905Z,991.84
2022-12-09T03:14:30.146Z,991.87
2022-12-09T03:15:29.848Z,991.84
2022-12-09T03:16:29.944Z,991.80
2022-12-09T03:17:29.919Z,991.79
2022-12-09T03:18:30.080Z,991.81
2022-12-09T03:19:29.793Z,991.79
2022-12-09T03:20:29.813Z,991.80
2022-12-09T03:21:30.085Z,991.73
2022-12-09T03:22:29.750Z,991.80
2022-12-09T03:23:29.721Z,991.76
2022-12-09T03:24:29.692Z,991.72
2022-12-09T03:25:29.850Z,991.76
2022-12-09T03:26:30.058Z,991.72
2022-12-09T03:27:29.736Z,991.70
2022-12-09T03:28:29.784Z,991.72
2022-12-09T03:29:29.805Z,991.71
2022-12-09T03:30:29.725Z,991.68
2022-12-09T03:31:30.005Z,991.70
2022-12-09T03:32:29.755Z,991.71
2022-12-09T03:33:29.731Z,991.74
2022-12-09T03:34:29.748Z,991.68
2022-12-09T03:35:29.856Z,991.70
2022-12-09T03:36:29.557Z,991.64
2022-12-09T03:37:29.633Z,991.68
2022-12-09T03:38:29.533Z,991.63
2022-12-09T03:39:29.501Z,991.63
2022-12-09T03:40:29.487Z,991.60
2022-12-09T03:41:29.598Z,991.65
2022-12-09T03:42:29.732Z,991.67
2022-12-09T03:43:29.808Z,991.67
2022-12-09T03:44:29.438Z,991.70
2022-12-09T03:45:29.553Z,991.68
2022-12-09T03:46:29.795Z,991.64
2022-12-09T03:47:29.568Z,991.71
2022-12-09T03:48:29.387Z,991.66
2022-12-09T03:49:29.544Z,991.70
2022-12-09T03:50:29.439Z,991.67
2022-12-09T03:51:29.553Z,991.62
2022-12-09T03:52:29.424Z,991.61
2022-12-09T03:53:29.601Z,991.60
2022-12-09T03:54:29.707Z,991.60
2022-12-09T03:55:29.297Z,991.65
2022-12-09T03:56:29.363Z,991.63
2022-12-09T03:57:29.327Z,991.56
2022-12-09T03:58:29.559Z,991.58
2022-12-09T03:59:29.336Z,991.55
2022-12-09T04:00:29.421Z,991.53
2022-12-09T04:01:29.706Z,991.55
2022-12-09T04:02:29.460Z,991.52
2022-12-09T04:03:29.415Z,991.45
2022-12-09T04:04:29.618Z,991.51
2022-12-09T04:05:29.206Z,991.43
2022-12-09T04:06:29.170Z,991.47
2022-12-09T04:07:29.150Z,991.48
2022-12-09T04:08:29.210Z,991.49
2022-12-09T04:09:29.293Z,991.48
2022-12-09T04:10:29.142Z,991.48
2022-12-09T04:11:29.109Z,991.40
2022-12-09T04:12:29.172Z,991.51
2022-12-09T04:13:29.069Z,991.45
2022-12-09T04:14:29.055Z,991.52
2022-12-09T04:15:29.386Z,991.49
2022-12-09T04:16:29.537Z,991.50
2022-12-09T04:17:29.208Z,991.53
2022-12-09T04:18:29.203Z,991.50
2022-12-09T04:19:28.991Z,991.52
2022-12-09T04:20:28.980Z,991.49
2022-12-09T04:21:29.004Z,991.46
2022-12-09T04:22:29.352Z,991.46
2022-12-09T04:23:29.116Z,991.47
2022-12-09T04:24:29.031Z,991.52
2022-12-09T04:25:29.178Z,991.48
2022-12-09T04:26:29.203Z,991.44
2022-12-09T04:27:28.895Z,991.44
2022-12-09T04:28:28.880Z,991.45
2022-12-09T04:29:28.891Z,991.47
2022-12-09T04:30:29.175Z,991.47
2022-12-09T04:31:29.132Z,991.50
2022-12-09T04:32:28.965Z,991.50
2022-12-09T04:33:28.924Z,991.50
2022-12-09T04:34:29.023Z,991.49
2022-12-09T04:35:28.821Z,991.47
2022-12-09T04:36:28.807Z,991.49
2022-12-09T04:37:28.840Z,991.50
2022-12-09T04:38:28.882Z,991.52
2022-12-09T04:39:28.736Z,991.52
2022-12-09T04:40:29.005Z,991.52
2022-12-09T04:41:29.021Z,991.56
2022-12-09T04:42:29.135Z,991.42
2022-12-09T04:43:29.030Z,991.53
2022-12-09T04:44:28.675Z,991.54
2022-12-09T04:45:28.683Z,991.54
2022-12-09T04:46:29.091Z,991.46
2022-12-09T04:47:28.791Z,991.46
2022-12-09T04:48:28.665Z,991.46
2022-12-09T04:49:28.873Z,991.42
2022-12-09T04:50:28.962Z,991.40
2022-12-09T04:51:32.515Z,991.43
2022-12-09T04:52:28.904Z,991.49
2022-12-09T04:53:28.639Z,991.47
2022-12-09T04:54:28.918Z,991.52
2022-12-09T04:55:28.541Z,991.46
2022-12-09T04:56:28.739Z,991.47
2022-12-09T04:57:28.527Z,991.47
2022-12-09T04:58:28.547Z,991.45
2022-12-09T04:59:28.875Z,991.44
2022-12-09T05:00:28.572Z,991.42
2022-12-09T05:01:31.512Z,991.45
2022-12-09T05:02:28.795Z,991.40
2022-12-09T05:03:28.763Z,991.43
2022-12-09T05:04:28.862Z,991.45
2022-12-09T05:05:28.592Z,991.45
2022-12-09T05:06:29.123Z,991.45
2022-12-09T05:07:28.469Z,991.50
2022-12-09T05:08:31.402Z,991.45
2022-12-09T05:09:28.732Z,991.46
2022-12-09T05:10:28.733Z,991.43
2022-12-09T05:11:28.527Z,991.44
2022-12-09T05:12:28.573Z,991.45
2022-12-09T05:13:28.595Z,991.38
2022-12-09T05:14:28.605Z,991.37
2022-12-09T05:15:28.444Z,991.45
2022-12-09T05:16:28.780Z,991.43
2022-12-09T05:17:28.429Z,991.43
2022-12-09T05:18:28.412Z,991.43
2022-12-09T05:19:28.659Z,991.41
2022-12-09T05:20:28.577Z,991.37
2022-12-09T05:21:28.220Z,991.39
2022-12-09T05:22:28.256Z,991.36
2022-12-09T05:23:28.281Z,991.35
2022-12-09T05:24:28.459Z,991.37
2022-12-09T05:25:28.215Z,991.36
2022-12-09T05:26:28.328Z,991.36
2022-12-09T05:27:28.290Z,991.34
2022-12-09T05:28:28.490Z,991.37
2022-12-09T05:29:28.273Z,991.33
2022-12-09T05:30:28.384Z,991.32
2022-12-09T05:31:28.328Z,991.34
2022-12-09T05:32:28.310Z,991.36
2022-12-09T05:33:28.529Z,991.33
2022-12-09T05:34:28.391Z,991.34
2022-12-09T05:35:28.037Z,991.28
2022-12-09T05:36:28.451Z,991.27
2022-12-09T05:37:28.104Z,991.27
2022-12-09T05:38:28.259Z,991.30
2022-12-09T05:39:28.078Z,991.27
2022-12-09T05:40:28.129Z,991.28
2022-12-09T05:41:28.107Z,991.33
2022-12-09T05:42:28.243Z,991.31
2022-12-09T05:43:28.259Z,991.31
2022-12-09T05:44:28.036Z,991.31
2022-12-09T05:45:28.011Z,991.23
2022-12-09T05:46:28.292Z,991.22
2022-12-09T05:47:28.400Z,991.28
2022-12-09T05:48:28.070Z,991.22
2022-12-09T05:49:28.072Z,991.29
2022-12-09T05:50:27.980Z,991.22
2022-12-09T05:51:28.038Z,991.21
2022-12-09T05:52:27.977Z,991.15
2022-12-09T05:53:27.942Z,991.21
2022-12-09T05:54:28.076Z,991.18
2022-12-09T05:55:28.324Z,991.15
2022-12-09T05:56:28.283Z,991.12
2022-12-09T05:57:28.247Z,991.10
2022-12-09T05:58:27.818Z,991.10
2022-12-09T05:59:28.130Z,991.12
2022-12-09T06:00:28.021Z,991.09
2022-12-09T06:01:27.928Z,991.15
2022-12-09T06:02:27.941Z,991.10
2022-12-09T06:03:28.260Z,991.15
2022-12-09T06:04:27.935Z,991.08
2022-12-09T06:05:28.234Z,991.08
2022-12-09T06:06:28.255Z,991.07
2022-12-09T06:07:27.900Z,991.05
2022-12-09T06:08:27.856Z,991.02
2022-12-09T06:09:27.924Z,991.03
2022-12-09T06:10:27.983Z,991.03
2022-12-09T06:11:27.842Z,991.09
2022-12-09T06:12:28.003Z,991.08
2022-12-09T06:13:28.053Z,991.00
2022-12-09T06:14:27.594Z,991.07
2022-12-09T06:15:33.279Z,991.04
2022-12-09T06:16:28.106Z,991.07
2022-12-09T06:17:27.784Z,991.06
2022-12-09T06:18:27.689Z,991.02
2022-12-09T06:19:27.672Z,990.96
2022-12-09T06:20:27.872Z,991.08
2022-12-09T06:21:27.490Z,991.04
2022-12-09T06:22:27.542Z,991.04
2022-12-09T06:23:27.689Z,991.00
2022-12-09T06:24:27.524Z,991.03
2022-12-09T06:25:27.849Z,991.01
2022-12-09T06:26:27.607Z,991.03
2022-12-09T06:27:27.608Z,990.99
2022-12-09T06:28:27.441Z,991.03
2022-12-09T06:29:27.623Z,990.99
2022-12-09T06:30:27.471Z,990.98
2022-12-09T06:31:27.497Z,991.01
2022-12-09T06:32:27.457Z,991.03
2022-12-09T06:33:53.412Z,991.04
2022-12-09T06:34:28.509Z,991.07
2022-12-09T06:35:27.788Z,991.07
2022-12-09T06:36:27.901Z,991.03
2022-12-09T06:37:27.476Z,991.05
2022-12-09T06:38:27.362Z,991.01
2022-12-09T06:39:27.363Z,991.03
2022-12-09T06:40:27.288Z,990.98
2022-12-09T06:41:27.619Z,991.03
2022-12-09T06:42:27.220Z,991.01
2022-12-09T06:43:27.256Z,991.01
2022-12-09T06:44:27.478Z,990.98
2022-12-09T06:45:27.568Z,991.09
2022-12-09T06:46:27.399Z,990.96
2022-12-09T06:47:27.297Z,991.09
2022-12-09T06:48:27.228Z,991.01
2022-12-09T06:49:27.692Z,991.13
2022-12-09T06:50:27.315Z,991.12
2022-12-09T06:51:27.495Z,991.08
2022-12-09T06:52:27.140Z,991.14
2022-12-09T06:53:27.132Z,991.12
2022-12-09T06:54:27.221Z,991.13
2022-12-09T06:55:27.471Z,991.13
2022-12-09T06:56:27.069Z,991.10
2022-12-09T06:57:27.414Z,991.09
2022-12-09T06:58:27.204Z,991.12
2022-12-09T06:59:27.069Z,991.12
2022-12-09T07:00:27.508Z,991.12
2022-12-09T07:01:27.097Z,991.06
2022-12-09T07:02:30.227Z,991.08
2022-12-09T07:03:27.224Z,991.03
2022-12-09T07:04:27.172Z,991.05
2022-12-09T07:05:27.113Z,991.09
2022-12-09T07:06:27.075Z,991.11
2022-12-09T07:07:27.033Z,991.06
2022-12-09T07:08:26.965Z,991.06
2022-12-09T07:09:27.028Z,991.04
2022-12-09T07:10:27.180Z,991.05
2022-12-09T07:11:27.284Z,991.07
2022-12-09T07:12:26.860Z,991.05
2022-12-09T07:13:27.035Z,990.99
2022-12-09T07:14:26.878Z,990.98
2022-12-09T07:15:27.013Z,990.99
2022-12-09T07:16:27.010Z,991.02
2022-12-09T07:17:27.092Z,990.96
2022-12-09T07:18:26.867Z,991.02
2022-12-09T07:19:27.041Z,991.00
2022-12-09T07:20:26.900Z,991.01
2022-12-09T07:21:27.003Z,991.02
2022-12-09T07:22:27.163Z,991.02
2022-12-09T07:23:27.193Z,991.05
2022-12-09T07:24:26.747Z,991.04
2022-12-09T07:25:26.746Z,991.08
2022-12-09T07:26:26.824Z,991.07
2022-12-09T07:27:26.827Z,991.08
2022-12-09T07:28:26.953Z,991.06
2022-12-09T07:29:27.058Z,991.05
2022-12-09T07:30:27.013Z,991.03
2022-12-09T07:31:27.023Z,991.02
2022-12-09T07:32:26.732Z,991.02
2022-12-09T07:33:27.023Z,991.09
2022-12-09T07:34:26.734Z,991.06
2022-12-09T07:35:26.872Z,991.02
2022-12-09T07:36:26.636Z,991.07
2022-12-09T07:37:26.524Z,991.03
2022-12-09T07:38:26.964Z,991.05
2022-12-09T07:39:26.904Z,991.06
2022-12-09T07:40:26.648Z,991.04
2022-12-09T07:41:26.644Z,991.00
2022-12-09T07:42:26.917Z,991.04
2022-12-09T07:43:26.532Z,991.05
2022-12-09T07:44:26.819Z,991.08
2022-12-09T07:45:26.912Z,991.01
2022-12-09T07:46:26.671Z,991.06
2022-12-09T07:47:26.599Z,991.12
2022-12-09T07:48:26.877Z,991.06
2022-12-09T07:49:26.624Z,991.08
2022-12-09T07:50:26.811Z,991.08
2022-12-09T07:51:26.854Z,991.06
2022-12-09T07:52:26.482Z,991.14
2022-12-09T07:53:26.595Z,991.07
2022-12-09T07:54:26.491Z,991.07
2022-12-09T07:55:26.299Z,991.04
2022-12-09T07:56:26.312Z,991.02
2022-12-09T07:57:26.689Z,991.02
2022-12-09T07:58:26.387Z,991.04
2022-12-09T07:59:26.552Z,991.04
2022-12-09T08:00:26.499Z,991.07
2022-12-09T08:01:26.689Z,991.04
2022-12-09T08:02:26.407Z,991.09
2022-12-09T08:03:26.342Z,991.03
2022-12-09T08:04:26.456Z,991.08
2022-12-09T08:05:26.539Z,991.04
2022-12-09T08:06:26.930Z,991.06
2022-12-09T08:07:26.539Z,991.02
2022-12-09T08:08:26.595Z,991.08
2022-12-09T08:09:26.323Z,991.05
2022-12-09T08:10:26.322Z,990.93
2022-12-09T08:11:26.520Z,990.95
2022-12-09T08:12:26.218Z,990.95
2022-12-09T08:13:26.138Z,990.94
2022-12-09T08:14:26.466Z,991.01
2022-12-09T08:15:26.193Z,991.01
2022-12-09T08:16:26.666Z,991.02
2022-12-09T08:17:26.162Z,991.05
2022-12-09T08:18:26.144Z,991.04
2022-12-09T08:19:26.275Z,991.02
2022-12-09T08:20:29.360Z,991.05
2022-12-09T08:21:26.307Z,991.00
2022-12-09T08:22:26.091Z,991.07
2022-12-09T08:23:26.339Z,991.02
2022-12-09T08:24:26.089Z,990.96
2022-12-09T08:25:25.964Z,990.97
2022-12-09T08:26:26.320Z,991.10
2022-12-09T08:27:26.145Z,991.06
2022-12-09T08:28:26.299Z,991.01
2022-12-09T08:29:25.934Z,990.97
2022-12-09T08:30:26.336Z,991.01
2022-12-09T08:31:26.437Z,990.98
2022-12-09T08:32:26.377Z,990.97
2022-12-09T08:33:26.163Z,990.90
2022-12-09T08:34:26.208Z,990.91
2022-12-09T08:35:26.245Z,990.91
2022-12-09T08:36:26.260Z,990.87
2022-12-09T08:37:25.974Z,990.89
2022-12-09T08:38:25.824Z,990.90
2022-12-09T08:39:25.798Z,990.89
2022-12-09T08:40:26.219Z,990.93
2022-12-09T08:41:25.796Z,990.94
2022-12-09T08:42:26.129Z,990.88
2022-12-09T08:43:25.818Z,990.93
2022-12-09T08:44:26.008Z,990.84
2022-12-09T08:45:25.707Z,990.85
2022-12-09T08:46:25.762Z,990.82
2022-12-09T08:47:26.083Z,990.83
2022-12-09T08:48:25.971Z,990.85
2022-12-09T08:49:25.931Z,990.83
2022-12-09T08:50:25.754Z,990.78
2022-12-09T08:51:25.647Z,990.78
2022-12-09T08:52:25.587Z,990.76
2022-12-09T08:53:25.794Z,990.69
2022-12-09T08:54:25.650Z,990.76
2022-12-09T08:55:25.911Z,990.70
2022-12-09T08:56:25.525Z,990.65
2022-12-09T08:57:25.661Z,990.67
2022-12-09T08:58:25.753Z,990.68
2022-12-09T08:59:25.637Z,990.69
2022-12-09T09:00:25.963Z,990.77
2022-12-09T09:01:25.945Z,990.79
2022-12-09T09:02:25.651Z,990.72
2022-12-09T09:03:25.634Z,990.69
2022-12-09T09:04:26.091Z,990.62
2022-12-09T09:05:26.048Z,990.59
2022-12-09T09:06:25.930Z,990.53
2022-12-09T09:07:25.595Z,990.52
2022-12-09T09:08:25.958Z,990.56
2022-12-09T09:09:25.552Z,990.53
2022-12-09T09:10:25.915Z,990.55
2022-12-09T09:11:26.016Z,990.54
2022-12-09T09:12:25.431Z,990.57
2022-12-09T09:13:25.746Z,990.64
2022-12-09T09:14:25.696Z,990.68
2022-12-09T09:15:25.285Z,990.60
2022-12-09T09:16:25.639Z,990.67
2022-12-09T09:17:25.596Z,990.61
2022-12-09T09:18:25.303Z,990.59
2022-12-09T09:19:25.752Z,990.58
2022-12-09T09:20:25.731Z,990.72
2022-12-09T09:21:25.576Z,990.68
2022-12-09T09:22:25.484Z,990.76
2022-12-09T09:23:25.589Z,990.62
2022-12-09T09:24:25.383Z,990.55
2022-12-09T09:25:25.564Z,990.62
2022-12-09T09:26:25.337Z,990.62
2022-12-09T09:27:25.570Z,990.59
2022-12-09T09:28:30.633Z,990.59
2022-12-09T09:29:25.582Z,990.50
2022-12-09T09:30:25.424Z,990.62
2022-12-09T09:31:25.226Z,990.59
2022-12-09T09:32:25.620Z,990.55
2022-12-09T09:33:25.119Z,990.51
2022-12-09T09:34:25.328Z,990.55
2022-12-09T09:35:25.297Z,990.52
2022-12-09T09:36:25.662Z,990.51
2022-12-09T09:37:25.206Z,990.58
2022-12-09T09:38:25.024Z,990.49
2022-12-09T09:39:25.547Z,990.55
2022-12-09T09:40:25.051Z,990.68
2022-12-09T09:41:25.438Z,990.64
2022-12-09T09:42:24.923Z,990.55
2022-12-09T09:43:25.190Z,990.59
2022-12-09T09:44:25.068Z,990.55
2022-12-09T09:45:25.030Z,990.47
2022-12-09T09:46:25.052Z,990.51
2022-12-09T09:47:25.108Z,990.47
2022-12-09T09:48:25.281Z,990.47
2022-12-09T09:49:25.348Z,990.55
2022-12-09T09:50:25.181Z,990.50
2022-12-09T09:51:24.838Z,990.51
2022-12-09T09:52:24.829Z,990.32
2022-12-09T09:53:24.836Z,990.41
2022-12-09T09:54:24.921Z,990.52
2022-12-09T09:55:25.154Z,990.38
2022-12-09T09:56:24.779Z,990.41
2022-12-09T09:57:24.924Z,990.30
2022-12-09T09:58:25.418Z,990.43
2022-12-09T09:59:24.789Z,990.39
2022-12-09T10:00:25.269Z,990.31
2022-12-09T10:01:24.951Z,990.26
2022-12-09T10:02:25.136Z,990.27
2022-12-09T10:03:25.380Z,990.31
2022-12-09T10:04:24.841Z,990.35
2022-12-09T10:05:25.166Z,990.28
2022-12-09T10:06:24.952Z,990.30
2022-12-09T10:07:24.997Z,990.21
2022-12-09T10:08:24.868Z,990.37
2022-12-09T10:09:24.908Z,990.42
2022-12-09T10:10:25.021Z,990.33
2022-12-09T10:11:25.091Z,990.36
2022-12-09T10:12:24.888Z,990.32
2022-12-09T10:13:25.288Z,990.34
2022-12-09T10:14:25.237Z,990.33
2022-12-09T10:15:25.019Z,990.35
2022-12-09T10:16:25.154Z,990.22
2022-12-09T10:17:25.020Z,990.12
2022-12-09T10:18:24.699Z,990.32
2022-12-09T10:19:24.585Z,990.25
2022-12-09T10:20:24.716Z,990.27
2022-12-09T10:21:24.577Z,990.32
2022-12-09T10:22:24.793Z,990.29
2022-12-09T10:23:24.584Z,990.26
2022-12-09T10:24:24.951Z,990.48
2022-12-09T10:25:24.899Z,990.48
2022-12-09T10:26:24.728Z,990.30
2022-12-09T10:27:24.462Z,990.49
2022-12-09T10:28:24.685Z,990.46
2022-12-09T10:29:24.592Z,990.47
2022-12-09T10:30:26.300Z,990.50
2022-12-09T10:31:24.499Z,990.51
2022-12-09T10:32:24.718Z,990.37
2022-12-09T10:33:24.399Z,990.45
2022-12-09T10:34:24.804Z,990.51
2022-12-09T10:35:24.728Z,990.43
2022-12-09T10:36:24.902Z,990.20
2022-12-09T10:37:24.282Z,990.20
2022-12-09T10:38:24.285Z,990.23
2022-12-09T10:39:24.292Z,990.29
2022-12-09T10:40:24.802Z,990.26
2022-12-09T10:41:24.360Z,990.28
2022-12-09T10:42:26.366Z,990.17
2022-12-09T10:43:24.126Z,990.23
2022-12-09T10:44:24.591Z,990.29
2022-12-09T10:45:24.585Z,990.27
2022-12-09T10:46:24.597Z,990.21
2022-12-09T10:47:24.650Z,990.31
2022-12-09T10:48:29.256Z,990.48
2022-12-09T10:49:24.573Z,990.47
2022-12-09T10:50:24.313Z,990.44
2022-12-09T10:51:24.743Z,990.44
2022-12-09T10:52:24.276Z,990.46
2022-12-09T10:53:23.994Z,990.51
2022-12-09T10:54:24.366Z,990.54
2022-12-09T10:55:24.317Z,990.45
2022-12-09T10:56:24.360Z,990.63
2022-12-09T10:57:24.340Z,990.64
2022-12-09T10:58:24.342Z,990.63
2022-12-09T10:59:24.089Z,990.29
2022-12-09T11:00:27.100Z,990.38
2022-12-09T11:01:24.423Z,990.26
2022-12-09T11:02:24.118Z,990.47
2022-12-09T11:03:23.984Z,990.26
2022-12-09T11:04:24.198Z,990.19
2022-12-09T11:05:24.328Z,990.16
2022-12-09T11:06:24.606Z,990.15
2022-12-09T11:07:24.072Z,990.16
2022-12-09T11:08:24.135Z,990.21
2022-12-09T11:09:24.262Z,990.23
2022-12-09T11:10:24.996Z,990.11
2022-12-09T11:11:25.351Z,990.08
2022-12-09T11:12:24.179Z,990.04
2022-12-09T11:13:23.784Z,989.98
2022-12-09T11:14:24.167Z,989.94
2022-12-09T11:15:24.029Z,989.86
2022-12-09T11:16:23.896Z,989.89
2022-12-09T11:17:24.267Z,989.88
2022-12-09T11:18:23.912Z,989.91
2022-12-09T11:19:23.866Z,990.06
2022-12-09T11:20:24.315Z,990.08
2022-12-09T11:21:24.179Z,989.98
2022-12-09T11:22:24.008Z,989.93
2022-12-09T11:23:23.879Z,990.00
2022-12-09T11:24:23.968Z,989.80
2022-12-09T11:25:23.780Z,989.92
2022-12-09T11:26:23.844Z,989.88
2022-12-09T11:27:23.697Z,989.82
2022-12-09T11:28:23.840Z,989.85
2022-12-09T11:29:23.593Z,989.90
2022-12-09T11:30:24.103Z,989.90
2022-12-09T11:31:33.567Z,989.84
2022-12-09T11:32:24.577Z,989.87
2022-12-09T11:33:23.637Z,989.86
2022-12-09T11:34:24.043Z,989.85
2022-12-09T11:35:24.001Z,989.86
2022-12-09T11:36:23.437Z,989.75
2022-12-09T11:37:23.437Z,989.82
2022-12-09T11:38:23.422Z,989.81
2022-12-09T11:39:23.392Z,989.79
2022-12-09T11:40:23.377Z,989.87
2022-12-09T11:41:23.371Z,989.85
2022-12-09T11:42:23.370Z,989.86
2022-12-09T11:43:23.346Z,989.76
2022-12-09T11:44:23.327Z,989.69
2022-12-09T11:45:23.312Z,989.80
2022-12-09T11:46:23.408Z,989.76
2022-12-09T11:47:23.299Z,989.76
2022-12-09T11:48:32.593Z,989.71
2022-12-09T11:49:23.266Z,989.74
2022-12-09T11:50:23.298Z,989.74
2022-12-09T11:51:23.249Z,989.69
2022-12-09T11:52:23.238Z,989.63
2022-12-09T11:53:23.215Z,989.67
2022-12-09T11:54:23.240Z,989.67
2022-12-09T11:55:23.184Z,989.64
2022-12-09T11:56:23.169Z,989.62
2022-12-09T11:57:23.172Z,989.57
2022-12-09T11:58:23.147Z,989.63
2022-12-09T11:59:23.128Z,989.60
2022-12-09T12:00:23.117Z,989.55
2022-12-09T12:01:23.109Z,989.55
2022-12-09T12:02:23.131Z,989.51
2022-12-09T12:03:23.147Z,989.52
2022-12-09T12:04:23.063Z,989.58
2022-12-09T12:05:23.047Z,989.51
2022-12-09T12:06:23.047Z,989.52
2022-12-09T12:07:23.037Z,989.48
2022-12-09T12:08:23.165Z,989.65
2022-12-09T12:09:23.003Z,989.53
2022-12-09T12:10:23.003Z,989.53
2022-12-09T12:11:22.972Z,989.49
2022-12-09T12:12:22.970Z,989.64
2022-12-09T12:13:22.946Z,989.70
2022-12-09T12:14:22.936Z,989.61
2022-12-09T12:15:22.920Z,989.69
2022-12-09T12:16:22.906Z,989.74
2022-12-09T12:17:22.938Z,989.57
2022-12-09T12:18:22.886Z,989.59
2022-12-09T12:19:22.864Z,989.61
2022-12-09T12:20:22.854Z,989.59
2022-12-09T12:21:22.842Z,989.56
2022-12-09T12:22:22.827Z,989.50
2022-12-09T12:23:22.835Z,989.50
2022-12-09T12:24:22.799Z,989.53
2022-12-09T12:25:22.785Z,989.51
2022-12-09T12:26:22.797Z,989.41
2022-12-09T12:27:22.767Z,989.47
2022-12-09T12:28:22.776Z,989.56